Time;durP1;ratioP1;P1;durP2;ratioP2;P2;SDS_P1;SDS_P2;PMS_P1;PMS_P2;Temp;Humidity;BMP_temperature;BMP_pressure;BME280_temperature;BME280_humidity;BME280_pressure;Samples;Min_cycle;Max_cycle;Signal;HPM_P1;HPM_P2
2023/07/05 00:02:09;;;;;;;12.55;9.48;;;;;;;15.82;100.00;100160.16;5033651;28;20044;-47
2023/07/05 00:04:34;;;;;;;12.13;9.65;;;;;;;15.63;100.00;100121.53;5033154;28;20109;-50
2023/07/05 00:06:59;;;;;;;12.13;9.13;;;;;;;15.52;100.00;100100.16;5037968;28;20049;-50
2023/07/05 00:09:25;;;;;;;17.73;9.50;;;;;;;15.87;100.00;100161.56;5053729;28;20124;-52
2023/07/05 00:11:50;;;;;;;13.45;9.38;;;;;;;15.44;100.00;100062.59;5053139;28;20060;-52
2023/07/05 00:14:16;;;;;;;13.07;9.95;;;;;;;15.80;100.00;100112.47;5053224;28;20033;-49
2023/07/05 00:16:42;;;;;;;16.70;10.13;;;;;;;15.75;100.00;100099.53;5052090;28;20472;-50
2023/07/05 00:19:07;;;;;;;14.13;10.43;;;;;;;15.70;100.00;100077.72;5053190;28;20040;-50
2023/07/05 00:21:33;;;;;;;14.48;11.23;;;;;;;15.66;100.00;100078.88;5061194;28;20124;-49
2023/07/05 00:23:58;;;;;;;15.27;11.07;;;;;;;15.63;100.00;100075.56;5055402;28;20032;-50
2023/07/05 00:26:25;;;;;;;14.20;10.90;;;;;;;15.57;100.00;100068.88;5073336;28;20048;-52
2023/07/05 00:28:50;;;;;;;17.70;11.57;;;;;;;15.51;100.00;100052.50;5073372;28;20028;-49
2023/07/05 00:31:16;;;;;;;20.40;10.85;;;;;;;15.50;100.00;100038.38;5072704;28;20043;-53
2023/07/05 00:33:41;;;;;;;17.70;11.63;;;;;;;15.48;100.00;100037.63;5055174;28;20040;-52
2023/07/05 00:36:07;;;;;;;16.15;12.48;;;;;;;15.46;100.00;100031.56;5072850;28;20040;-52
2023/07/05 00:38:32;;;;;;;18.48;12.32;;;;;;;15.49;100.00;100038.50;5062287;28;20049;-51
2023/07/05 00:40:58;;;;;;;17.58;11.63;;;;;;;15.49;100.00;100023.44;5051734;28;20111;-51
2023/07/05 00:43:23;;;;;;;12.57;10.82;;;;;;;15.16;100.00;99954.00;5053098;28;20114;-50
2023/07/05 00:45:57;;;;;;;15.25;11.77;;;;;;;15.50;100.00;100016.34;5052652;28;20033;-48
2023/07/05 00:48:38;;;;;;;15.88;11.55;;;;;;;15.50;100.00;99993.28;5053046;28;20037;-53
2023/07/05 00:51:13;;;;;;;18.45;12.15;;;;;;;15.47;100.00;99976.75;5052636;28;20131;-50
2023/07/05 00:53:38;;;;;;;22.02;12.05;;;;;;;15.06;100.00;99906.03;5034809;28;20036;-52
2023/07/05 00:56:15;;;;;;;15.50;11.90;;;;;;;15.18;100.00;99931.75;5061332;28;20028;-50
2023/07/05 00:58:41;;;;;;;18.48;12.65;;;;;;;15.50;100.00;99977.38;5071285;28;20028;-52
2023/07/05 01:01:06;;;;;;;16.10;12.48;;;;;;;15.40;100.00;99949.75;5072743;28;20233;-52
2023/07/05 01:03:32;;;;;;;16.83;12.20;;;;;;;15.46;100.00;99970.56;5072455;28;20468;-55
2023/07/05 01:05:59;;;;;;;19.10;11.73;;;;;;;15.10;100.00;99904.88;5072494;28;20037;-51
2023/07/05 01:08:24;;;;;;;19.50;11.80;;;;;;;15.24;100.00;99943.72;5054504;28;20048;-55
2023/07/05 01:11:09;;;;;;;17.10;11.60;;;;;;;15.34;100.00;99963.41;5072234;28;20035;-49
2023/07/05 01:13:40;;;;;;;11.50;7.25;;;;;;;15.53;100.00;99981.63;5068919;28;20036;-55
2023/07/05 01:16:09;;;;;;;9.48;6.35;;;;;;;15.56;100.00;99981.41;5071150;28;20066;-55
2023/07/05 01:18:40;;;;;;;7.68;5.30;;;;;;;15.10;100.00;99904.03;5072515;28;20039;-54
2023/07/05 01:21:34;;;;;;;4.50;3.38;;;;;;;15.33;100.00;99948.44;5072147;28;20502;-53
2023/07/05 01:24:24;;;;;;;5.43;3.88;;;;;;;15.01;100.00;99915.22;5070026;28;20031;-50
2023/07/05 01:26:59;;;;;;;4.18;3.03;;;;;;;15.30;100.00;99969.00;5071034;28;20111;-51
2023/07/05 01:29:53;;;;;;;3.60;2.95;;;;;;;14.97;100.00;99919.88;5053333;28;20583;-51
2023/07/05 01:32:42;;;;;;;4.75;2.65;;;;;;;15.23;100.00;99969.38;5054145;28;20040;-54
2023/07/05 01:35:27;;;;;;;6.13;3.13;;;;;;;14.84;100.00;99900.44;5057567;28;20484;-51
2023/07/05 01:37:53;;;;;;;7.65;3.33;;;;;;;15.21;100.00;99968.66;5072022;28;20025;-49
2023/07/05 01:40:18;;;;;;;4.60;2.50;;;;;;;15.10;100.00;99973.81;5071972;28;20079;-51
2023/07/05 01:42:44;;;;;;;8.55;3.13;;;;;;;15.05;100.00;99967.97;5072453;28;20111;-50
2023/07/05 01:45:10;;;;;;;7.20;2.45;;;;;;;15.10;100.00;99979.09;5051913;28;20040;-54
2023/07/05 01:47:51;;;;;;;11.77;3.33;;;;;;;14.98;100.00;99960.47;5071926;28;20082;-53
2023/07/05 01:50:34;;;;;;;7.88;2.78;;;;;;;15.04;100.00;99992.75;5052849;28;20059;-49
2023/07/05 01:53:04;;;;;;;5.75;2.47;;;;;;;15.07;100.00;99989.91;5071817;28;20031;-55
2023/07/05 01:55:39;;;;;;;9.40;3.03;;;;;;;15.07;100.00;99992.56;5052973;28;20045;-51
2023/07/05 01:58:11;;;;;;;8.40;2.85;;;;;;;15.05;100.00;99999.75;5054186;28;20039;-51
2023/07/05 02:00:38;;;;;;;7.25;2.30;;;;;;;14.99;100.00;99984.25;5054080;28;20036;-52
2023/07/05 02:03:08;;;;;;;6.13;2.53;;;;;;;14.94;100.00;99964.28;5057531;28;20041;-50
2023/07/05 02:05:34;;;;;;;5.90;2.40;;;;;;;15.01;100.00;99979.69;5050872;28;20037;-52
2023/07/05 02:08:00;;;;;;;8.65;2.63;;;;;;;14.98;100.00;99960.47;5051431;28;20306;-51
2023/07/05 02:10:26;;;;;;;9.50;3.17;;;;;;;14.66;100.00;99906.91;5050724;28;20076;-52
2023/07/05 02:12:55;;;;;;;6.80;2.90;;;;;;;14.68;100.00;99907.69;5051898;28;20355;-52
2023/07/05 02:15:21;;;;;;;5.75;3.17;;;;;;;14.81;100.00;99926.28;5033974;28;20040;-57
2023/07/05 02:17:47;;;;;;;8.00;3.15;;;;;;;15.09;100.00;99980.03;5051564;28;20472;-56
2023/07/05 02:20:12;;;;;;;8.93;3.53;;;;;;;15.07;100.00;99974.00;5048277;28;20236;-55
2023/07/05 02:22:37;;;;;;;10.38;3.60;;;;;;;15.03;100.00;99977.78;5071854;28;20180;-55
2023/07/05 02:25:03;;;;;;;5.05;3.00;;;;;;;14.57;100.00;99904.84;5054018;28;20040;-55
2023/07/05 02:27:29;;;;;;;5.78;3.60;;;;;;;14.84;100.00;99987.88;5071659;28;20036;-56
2023/07/05 02:29:55;;;;;;;5.60;3.80;;;;;;;14.71;100.00;99971.03;5071729;28;20032;-54
2023/07/05 02:32:21;;;;;;;7.95;4.30;;;;;;;14.26;100.00;99908.53;5071460;28;20044;-53
2023/07/05 02:34:46;;;;;;;6.15;4.57;;;;;;;14.17;100.00;99929.41;5049284;28;20091;-55
2023/07/05 02:37:12;;;;;;;5.57;4.57;;;;;;;14.15;100.00;99939.25;5055123;28;20037;-57
2023/07/05 02:39:37;;;;;;;6.32;5.35;;;;;;;13.96;100.00;99911.25;5037412;28;20032;-54
2023/07/05 02:42:03;;;;;;;6.13;4.60;;;;;;;13.82;100.00;99895.38;5037518;28;20036;-50
2023/07/05 02:44:29;;;;;;;7.43;4.75;;;;;;;14.09;100.00;99946.63;5053775;28;20033;-51
2023/07/05 02:46:54;;;;;;;8.38;4.60;;;;;;;14.20;100.00;99966.28;5053790;28;20040;-52
2023/07/05 02:49:20;;;;;;;9.68;5.07;;;;;;;13.54;100.00;99842.47;5054133;28;20498;-54
2023/07/05 02:51:45;;;;;;;6.28;4.38;;;;;;;13.78;100.00;99890.34;5055115;28;20492;-56
2023/07/05 02:54:10;;;;;;;4.35;3.95;;;;;;;14.15;100.00;99963.06;5070099;28;20086;-56
2023/07/05 02:56:36;;;;;;;5.85;4.13;;;;;;;13.81;100.00;99913.97;5075010;28;20032;-54
2023/07/05 02:59:01;;;;;;;4.45;3.75;;;;;;;14.17;100.00;99955.88;5074867;28;20068;-56
2023/07/05 03:01:26;;;;;;;5.05;3.58;;;;;;;13.75;100.00;99893.19;5074478;28;20047;-53
2023/07/05 03:03:52;;;;;;;4.57;3.60;;;;;;;14.18;100.00;99968.19;5074738;28;20040;-56
2023/07/05 03:06:17;;;;;;;5.30;3.58;;;;;;;13.75;100.00;99891.41;5074816;28;20040;-52
2023/07/05 03:08:42;;;;;;;5.28;4.22;;;;;;;14.06;100.00;99951.25;5074331;28;20048;-54
2023/07/05 03:11:08;;;;;;;8.23;4.75;;;;;;;14.01;100.00;99932.13;5061219;28;20048;-51
2023/07/05 03:13:34;;;;;;;6.85;4.30;;;;;;;13.92;100.00;99938.84;5054562;28;20033;-55
2023/07/05 03:15:59;;;;;;;6.47;4.32;;;;;;;13.86;100.00;99941.03;5036732;28;20431;-54
2023/07/05 03:18:26;;;;;;;5.93;4.25;;;;;;;13.41;100.00;99870.56;5054711;28;20106;-52
2023/07/05 03:20:51;;;;;;;9.55;4.72;;;;;;;13.82;100.00;99942.13;5053189;28;20036;-54
2023/07/05 03:23:17;;;;;;;7.13;4.65;;;;;;;13.79;100.00;99951.13;5036886;28;20055;-53
2023/07/05 03:25:59;;;;;;;5.70;4.05;;;;;;;13.35;100.00;99863.00;5036313;28;20112;-57
2023/07/05 03:28:27;;;;;;;8.80;3.90;;;;;;;13.43;100.00;99892.47;5053542;28;20040;-53
2023/07/05 03:31:11;;;;;;;8.40;4.85;;;;;;;13.69;100.00;99939.38;5054444;28;20037;-53
2023/07/05 03:33:36;;;;;;;10.07;5.07;;;;;;;13.67;100.00;99922.75;5054372;28;20068;-54
2023/07/05 03:36:05;;;;;;;11.48;4.88;;;;;;;13.65;100.00;99918.50;5054283;28;20111;-56
2023/07/05 03:38:32;;;;;;;6.03;4.13;;;;;;;13.27;100.00;99866.09;5053996;28;20039;-54
2023/07/05 03:40:59;;;;;;;11.27;4.57;;;;;;;13.19;100.00;99855.09;5036334;28;20510;-54
2023/07/05 03:43:25;;;;;;;7.57;5.20;;;;;;;13.53;100.00;99910.34;5054159;28;20435;-57
2023/07/05 03:45:51;;;;;;;6.30;4.28;;;;;;;13.11;100.00;99836.22;5052370;28;20063;-52
2023/07/05 03:48:17;;;;;;;8.48;4.80;;;;;;;13.20;100.00;99850.66;5053321;28;20041;-52
2023/07/05 03:50:42;;;;;;;9.43;4.90;;;;;;;13.45;100.00;99887.94;5053800;28;20112;-56
2023/07/05 03:53:08;;;;;;;8.93;4.18;;;;;;;13.51;100.00;99914.84;5053839;28;20125;-55
2023/07/05 03:55:36;;;;;;;9.52;4.20;;;;;;;13.54;100.00;99904.09;5053549;28;20041;-50
2023/07/05 03:58:01;;;;;;;5.20;3.47;;;;;;;13.54;100.00;99908.56;5054017;28;20380;-54
2023/07/05 04:00:27;;;;;;;11.90;3.80;;;;;;;13.21;100.00;99873.53;5053617;28;20052;-48
2023/07/05 04:02:52;;;;;;;5.32;3.25;;;;;;;13.17;100.00;99853.50;5066207;28;20041;-51
2023/07/05 04:05:17;;;;;;;4.97;2.90;;;;;;;13.46;100.00;99953.09;5073681;28;20040;-52
2023/07/05 04:07:42;;;;;;;7.45;3.55;;;;;;;13.44;100.00;99944.41;5073652;28;20488;-54
2023/07/05 04:10:08;;;;;;;6.28;3.75;;;;;;;13.39;100.00;99943.81;5073459;28;20571;-52
2023/07/05 04:12:34;;;;;;;8.85;3.60;;;;;;;13.35;100.00;99940.50;5073578;28;20028;-56
2023/07/05 04:14:59;;;;;;;9.55;3.55;;;;;;;13.43;100.00;99948.81;5073205;28;20131;-55
2023/07/05 04:17:24;;;;;;;6.45;2.92;;;;;;;13.00;100.00;99880.88;5073296;28;20125;-51
2023/07/05 04:19:49;;;;;;;7.05;2.67;;;;;;;13.07;100.00;99899.88;5037857;28;20041;-50
2023/07/05 04:22:15;;;;;;;13.65;2.92;;;;;;;12.82;100.00;99845.78;5073308;28;20165;-53
2023/07/05 04:24:40;;;;;;;6.38;2.05;;;;;;;13.29;100.00;99948.78;5073018;28;20380;-50
2023/07/05 04:27:05;;;;;;;6.55;2.45;;;;;;;12.89;100.00;99881.50;5073121;28;20033;-50
2023/07/05 04:29:32;;;;;;;6.15;2.20;;;;;;;13.22;100.00;99941.31;5073265;28;20043;-52
2023/07/05 04:31:58;;;;;;;10.38;2.60;;;;;;;13.26;100.00;99938.38;5073439;28;20072;-53
2023/07/05 04:34:23;;;;;;;7.72;2.97;;;;;;;13.29;100.00;99948.78;5071666;28;20079;-50
2023/07/05 04:36:48;;;;;;;10.73;2.95;;;;;;;13.23;100.00;99932.41;5055087;28;20074;-53
2023/07/05 04:39:14;;;;;;;11.20;2.88;;;;;;;12.92;100.00;99889.25;5072745;28;20074;-52
2023/07/05 04:41:39;;;;;;;8.35;2.60;;;;;;;13.24;100.00;99935.00;5072764;28;20037;-50
2023/07/05 04:44:06;;;;;;;10.88;3.20;;;;;;;13.32;100.00;99953.88;5072902;28;20364;-50
2023/07/05 04:46:31;;;;;;;12.45;3.00;;;;;;;13.11;100.00;99941.91;5055349;28;20179;-55
2023/07/05 04:48:56;;;;;;;15.77;4.22;;;;;;;13.02;100.00;99945.03;5072862;28;20147;-52
2023/07/05 04:51:22;;;;;;;9.35;2.90;;;;;;;13.23;100.00;99959.69;5071452;28;20395;-53
2023/07/05 04:53:47;;;;;;;10.27;3.28;;;;;;;12.81;100.00;99910.09;5054718;28;20463;-54
2023/07/05 04:56:14;;;;;;;12.13;3.17;;;;;;;13.13;100.00;99966.47;5054792;28;20535;-49
2023/07/05 04:58:39;;;;;;;5.95;2.80;;;;;;;13.11;100.00;99970.09;5071519;28;20039;-50
2023/07/05 05:01:07;;;;;;;11.23;3.75;;;;;;;13.06;100.00;99966.84;5053784;28;20045;-53
2023/07/05 05:03:33;;;;;;;10.13;3.22;;;;;;;13.04;100.00;99958.16;5066019;28;20044;-55
2023/07/05 05:05:58;;;;;;;8.05;3.13;;;;;;;13.02;100.00;99963.50;5054833;28;20494;-54
2023/07/05 05:08:24;;;;;;;7.85;3.22;;;;;;;12.55;100.00;99891.38;5072526;28;20087;-51
2023/07/05 05:10:56;;;;;;;6.93;2.65;;;;;;;12.83;100.00;99942.56;5069894;28;20090;-49
2023/07/05 05:13:22;;;;;;;11.88;3.70;;;;;;;12.94;100.00;99963.97;5072281;28;20028;-52
2023/07/05 05:15:48;;;;;;;10.52;2.78;;;;;;;12.57;100.00;99910.63;5054498;28;20472;-52
2023/07/05 05:18:14;;;;;;;7.53;2.65;;;;;;;12.87;100.00;99969.69;5054424;28;20042;-48
2023/07/05 05:20:39;;;;;;;11.82;3.03;;;;;;;12.87;100.00;99991.63;5072160;28;20090;-47
2023/07/05 05:23:05;;;;;;;13.55;3.42;;;;;;;12.37;100.00;99906.44;5054262;28;20029;-50
2023/07/05 05:25:30;;;;;;;14.18;3.58;;;;;;;12.63;100.00;99985.06;5072376;28;20387;-50
2023/07/05 05:27:56;;;;;;;10.73;3.13;;;;;;;12.24;100.00;99966.94;5071078;28;20044;-54
2023/07/05 05:30:22;;;;;;;7.18;2.63;;;;;;;12.34;100.00;100001.63;5072279;28;20050;-53
2023/07/05 05:32:48;;;;;;;19.80;3.40;;;;;;;11.82;100.00;99933.09;5071261;28;20025;-50
2023/07/05 05:35:16;;;;;;;12.95;3.72;;;;;;;12.11;100.00;99994.06;5070871;28;20533;-52
2023/07/05 05:37:42;;;;;;;13.50;3.70;;;;;;;12.02;100.00;100012.97;5071853;28;20037;-49
2023/07/05 05:40:09;;;;;;;13.65;4.07;;;;;;;11.47;100.00;99928.72;5072125;28;20082;-53
2023/07/05 05:42:35;;;;;;;15.55;4.07;;;;;;;11.45;100.00;99946.41;5070785;28;20387;-55
2023/07/05 05:45:00;;;;;;;21.10;4.20;;;;;;;11.35;100.00;99949.59;5070913;28;20036;-49
2023/07/05 05:47:26;;;;;;;15.23;3.72;;;;;;;11.68;100.00;100016.41;5072042;28;20033;-55
2023/07/05 05:49:51;;;;;;;17.85;3.63;;;;;;;11.56;100.00;99994.16;5072124;28;20037;-53
2023/07/05 05:52:16;;;;;;;11.98;2.03;;;;;;;11.29;100.00;99983.19;5071837;28;20037;-55
2023/07/05 05:54:42;;;;;;;11.23;2.20;;;;;;;11.35;100.00;100002.28;5071902;28;20093;-58
2023/07/05 05:57:07;;;;;;;11.40;2.55;;;;;;;10.77;100.00;99905.00;5072121;28;20037;-58
2023/07/05 05:59:33;;;;;;;9.55;2.70;;;;;;;11.20;100.00;99986.28;5063730;28;20044;-53
2023/07/05 06:01:58;;;;;;;8.63;2.00;;;;;;;11.05;100.00;99973.00;5050793;28;20033;-55
2023/07/05 06:04:24;;;;;;;11.13;1.95;;;;;;;11.07;100.00;99971.13;5034083;28;20033;-55
2023/07/05 06:06:49;;;;;;;9.57;2.10;;;;;;;11.02;100.00;99991.56;5033615;28;20120;-54
2023/07/05 06:09:14;;;;;;;10.05;3.13;;;;;;;11.07;100.00;99961.47;5051946;28;20132;-59
2023/07/05 06:11:40;;;;;;;12.68;2.58;;;;;;;10.73;100.00;99903.47;5054817;28;20391;-53
2023/07/05 06:14:06;;;;;;;14.63;3.35;;;;;;;11.18;100.00;99972.31;5055686;28;20043;-56
2023/07/05 06:16:32;;;;;;;11.18;3.35;;;;;;;10.95;100.00;99926.97;5056942;28;20036;-59
2023/07/05 06:18:57;;;;;;;12.98;3.80;;;;;;;11.45;100.00;99995.63;5055715;28;20041;-59
2023/07/05 06:21:22;;;;;;;17.48;4.97;;;;;;;11.57;100.00;99976.56;5055751;28;20029;-59
2023/07/05 06:23:48;;;;;;;17.45;4.30;;;;;;;11.30;100.00;99934.84;5055839;28;20033;-56
2023/07/05 06:26:13;;;;;;;17.95;4.80;;;;;;;11.38;100.00;99915.19;5055394;28;20067;-48
2023/07/05 06:28:39;;;;;;;17.52;4.68;;;;;;;11.80;100.00;99995.59;5055508;28;20033;-57
2023/07/05 06:31:11;;;;;;;16.17;4.80;;;;;;;11.55;100.00;99931.84;5054917;28;20037;-57
2023/07/05 06:33:37;;;;;;;24.15;4.85;;;;;;;11.93;100.00;100021.34;5055410;28;20033;-59
2023/07/05 06:36:04;;;;;;;20.95;5.28;;;;;;;11.94;100.00;100008.06;5055176;28;20032;-50
2023/07/05 06:38:29;;;;;;;20.05;4.53;;;;;;;11.97;100.00;100022.88;5055564;28;20041;-61
2023/07/05 06:40:56;;;;;;;19.77;4.93;;;;;;;11.94;100.00;100023.91;5055156;28;20036;-59
2023/07/05 06:43:22;;;;;;;19.13;4.45;;;;;;;11.55;100.00;99971.38;5069248;28;20032;-58
2023/07/05 06:45:49;;;;;;;15.82;4.45;;;;;;;11.99;100.00;100036.88;5075269;28;20530;-57
2023/07/05 06:48:14;;;;;;;22.60;5.30;;;;;;;11.86;100.00;100026.09;5075220;28;20383;-57
2023/07/05 06:50:39;;;;;;;26.77;4.97;;;;;;;11.56;100.00;99965.16;5056959;28;20120;-58
2023/07/05 06:53:05;;;;;;;14.30;4.35;;;;;;;11.91;100.00;100036.41;5074844;28;20460;-55
2023/07/05 06:55:30;;;;;;;21.15;5.45;;;;;;;11.57;100.00;100024.88;5055903;28;20072;-61
2023/07/05 06:57:55;;;;;;;16.23;4.75;;;;;;;11.63;100.00;100010.53;5074390;28;20038;-55
2023/07/05 07:00:21;;;;;;;17.40;4.03;;;;;;;11.87;100.00;100048.03;5064733;28;20040;-55
2023/07/05 07:02:46;;;;;;;14.95;4.32;;;;;;;11.57;100.00;100013.47;5054952;28;20033;-58
2023/07/05 07:05:11;;;;;;;19.65;4.68;;;;;;;11.22;100.00;99962.50;5054774;28;20071;-56
2023/07/05 07:07:37;;;;;;;13.50;4.20;;;;;;;11.64;100.00;100028.06;5054941;28;20045;-50
2023/07/05 07:10:03;;;;;;;18.02;4.63;;;;;;;11.93;100.00;100082.00;5054929;28;20033;-59
2023/07/05 07:12:28;;;;;;;13.20;3.60;;;;;;;11.50;100.00;100026.09;5054750;28;20064;-52
2023/07/05 07:14:53;;;;;;;14.00;3.97;;;;;;;11.98;100.00;100116.91;5053308;28;20037;-53
2023/07/05 07:17:19;;;;;;;9.70;3.38;;;;;;;11.65;100.00;100061.38;5054198;28;20048;-59
2023/07/05 07:19:44;;;;;;;11.77;3.88;;;;;;;11.73;100.00;100102.28;5054738;28;20429;-55
2023/07/05 07:22:10;;;;;;;17.15;4.57;;;;;;;12.05;100.00;100161.41;5053384;28;20047;-53
2023/07/05 07:24:37;;;;;;;11.05;3.75;;;;;;;12.08;100.00;100139.28;5037792;28;20029;-54
2023/07/05 07:27:03;;;;;;;16.42;4.30;;;;;;;11.74;100.00;100103.16;5074360;28;20082;-51
2023/07/05 07:29:28;;;;;;;12.13;3.72;;;;;;;12.14;100.00;100175.94;5073192;28;20036;-50
2023/07/05 07:31:54;;;;;;;11.95;4.18;;;;;;;11.81;100.00;100100.16;5074303;28;20042;-55
2023/07/05 07:34:19;;;;;;;11.43;4.35;;;;;;;11.78;100.00;100108.22;5074173;28;20032;-53
2023/07/05 07:36:45;;;;;;;14.80;4.88;;;;;;;12.24;100.00;100212.31;5064301;28;20072;-52
2023/07/05 07:39:10;;;;;;;11.73;3.47;;;;;;;11.83;100.00;100131.72;5036207;28;20033;-51
2023/07/05 07:41:38;;;;;;;9.85;3.20;;;;;;;11.74;100.00;100158.50;5054354;28;20036;-57
2023/07/05 07:44:05;;;;;;;8.82;3.60;;;;;;;11.77;100.00;100193.50;5054198;28;20032;-50
2023/07/05 07:46:31;;;;;;;11.00;3.85;;;;;;;12.12;100.00;100262.19;5053980;28;20021;-58
2023/07/05 07:48:59;;;;;;;7.07;3.13;;;;;;;12.14;100.00;100255.06;5053917;28;20119;-54
2023/07/05 07:51:27;;;;;;;8.02;3.20;;;;;;;11.94;100.00;100220.88;5053738;28;20047;-52
2023/07/05 07:53:52;;;;;;;9.40;2.85;;;;;;;11.70;100.00;100192.06;5053900;28;20134;-49
2023/07/05 07:56:20;;;;;;;10.13;3.83;;;;;;;11.99;100.00;100282.16;5053539;28;20464;-54
2023/07/05 07:58:50;;;;;;;8.93;3.30;;;;;;;12.06;100.00;100273.03;5053871;28;20068;-50
2023/07/05 08:01:26;;;;;;;11.93;3.40;;;;;;;11.79;100.00;100239.09;5053869;28;20052;-53
2023/07/05 08:03:52;;;;;;;15.23;4.13;;;;;;;11.84;100.00;100217.81;5054067;28;20083;-54
2023/07/05 08:06:18;;;;;;;12.27;3.83;;;;;;;11.93;100.00;100238.47;5053861;28;20033;-51
2023/07/05 08:08:44;;;;;;;18.65;5.45;;;;;;;11.91;100.00;100219.22;5052794;28;20539;-54
2023/07/05 08:11:09;;;;;;;22.90;5.65;;;;;;;11.90;100.00;100237.75;5053434;28;20175;-53
2023/07/05 08:13:36;;;;;;;19.65;6.22;;;;;;;11.91;100.00;100260.59;5053481;28;20037;-56
2023/07/05 08:16:02;;;;;;;28.60;6.38;;;;;;;12.30;100.00;100314.94;5053425;28;20491;-50
2023/07/05 08:18:28;;;;;;;20.33;6.88;;;;;;;12.06;100.00;100291.50;5053519;28;20032;-55
2023/07/05 08:20:53;;;;;;;21.42;5.85;;;;;;;12.35;100.00;100347.25;5053496;28;20057;-51
2023/07/05 08:23:19;;;;;;;18.90;6.15;;;;;;;11.86;100.00;100281.88;5053530;28;20114;-56
2023/07/05 08:25:45;;;;;;;17.98;5.72;;;;;;;12.05;100.00;100363.66;5051369;28;20091;-59
2023/07/05 08:28:13;;;;;;;16.20;5.63;;;;;;;11.97;100.00;100378.94;5053269;28;20041;-58
2023/07/05 08:30:40;;;;;;;22.60;5.95;;;;;;;11.54;100.00;100309.69;5053253;28;20037;-56
2023/07/05 08:33:08;;;;;;;14.43;4.28;;;;;;;11.45;100.00;100328.53;5053115;28;20033;-51
2023/07/05 08:35:34;;;;;;;13.43;4.63;;;;;;;11.78;100.00;100394.75;5053299;28;20036;-57
2023/07/05 08:38:00;;;;;;;12.27;4.88;;;;;;;11.47;100.00;100341.66;5053169;28;20029;-50
2023/07/05 08:40:33;;;;;;;22.63;4.82;;;;;;;11.39;100.00;100339.34;5053442;28;20091;-51
2023/07/05 08:43:03;;;;;;;15.70;4.45;;;;;;;11.67;100.00;100437.41;5035344;28;20037;-53
2023/07/05 08:45:35;;;;;;;16.75;4.00;;;;;;;11.26;100.00;100372.41;5051672;28;20419;-52
2023/07/05 08:48:02;;;;;;;9.48;3.67;;;;;;;11.53;100.00;100405.47;5035136;28;20025;-51
2023/07/05 08:50:34;;;;;;;10.10;3.53;;;;;;;11.43;100.00;100448.13;5052818;28;20445;-56
2023/07/05 08:53:19;;;;;;;15.13;4.35;;;;;;;11.58;100.00;100445.69;5035114;28;20555;-50
2023/07/05 08:56:04;;;;;;;16.38;4.25;;;;;;;11.67;100.00;100453.22;5034867;28;20045;-53
2023/07/05 08:58:40;;;;;;;20.35;4.72;;;;;;;11.42;100.00;100385.78;5035098;28;20032;-52
2023/07/05 09:01:11;;;;;;;20.20;5.30;;;;;;;11.60;100.00;100406.94;5034945;28;20037;-53
2023/07/05 09:03:36;;;;;;;21.33;7.25;;;;;;;12.35;100.00;100466.00;5051312;28;20396;-49
2023/07/05 09:06:11;;;;;;;21.08;7.03;;;;;;;12.68;100.00;100491.78;5052458;28;20041;-49
2023/07/05 09:08:45;;;;;;;16.80;5.60;;;;;;;12.96;100.00;100485.13;5052366;28;20049;-52
2023/07/05 09:11:15;;;;;;;22.10;6.07;;;;;;;13.20;100.00;100484.91;5051422;28;20439;-47
2023/07/05 09:13:41;;;;;;;21.52;6.43;;;;;;;13.33;100.00;100484.25;5052473;28;20037;-47
2023/07/05 09:16:39;;;;;;;14.52;4.75;;;;;;;13.52;100.00;100503.56;5051813;28;20469;-56
2023/07/05 09:19:17;;;;;;;14.55;5.50;;;;;;;13.20;100.00;100432.91;5051330;28;20044;-49
2023/07/05 09:21:55;;;;;;;21.30;5.55;;;;;;;13.65;100.00;100500.31;5052408;28;20041;-57
2023/07/05 09:24:24;;;;;;;20.85;5.43;;;;;;;13.75;100.00;100528.00;5034573;28;20041;-56
2023/07/05 09:26:56;;;;;;;13.23;4.65;;;;;;;13.82;100.00;100529.41;5051071;28;20035;-52
2023/07/05 09:29:55;;;;;;;15.25;5.57;;;;;;;13.92;100.00;100535.97;5051255;28;20029;-55
2023/07/05 09:32:28;;;;;;;19.40;5.20;;;;;;;13.96;100.00;100551.59;5051613;28;20037;-58
2023/07/05 09:35:01;;;;;;;15.90;5.05;;;;;;;14.15;100.00;100548.00;5052177;28;20037;-51
2023/07/05 09:37:35;;;;;;;15.50;4.70;;;;;;;14.30;100.00;100547.22;5052081;28;20090;-56
2023/07/05 09:40:19;;;;;;;12.45;4.75;;;;;;;14.50;100.00;100547.06;5034485;28;20387;-55
2023/07/05 09:42:47;;;;;;;16.70;4.57;;;;;;;14.71;100.00;100548.53;5034464;28;20076;-50
2023/07/05 09:45:14;;;;;;;16.80;4.53;;;;;;;14.90;100.00;100559.88;5052647;28;20032;-54
2023/07/05 09:47:41;;;;;;;15.18;4.28;;;;;;;14.81;100.00;100536.50;5041099;28;20036;-53
2023/07/05 09:50:18;;;;;;;14.43;4.95;;;;;;;14.97;100.00;100577.13;5058139;28;20475;-51
2023/07/05 09:52:47;;;;;;;16.55;4.35;;;;;;;15.15;100.00;100581.44;5076153;28;20391;-47
2023/07/05 09:55:14;;;;;;;13.65;4.40;;;;;;;15.39;100.00;100573.03;5074831;28;20068;-49
2023/07/05 09:57:39;;;;;;;12.93;4.32;;;;;;;15.73;100.00;100591.47;5057980;28;20052;-49
2023/07/05 10:00:35;;;;;;;15.20;4.05;;;;;;;15.91;100.00;100593.03;5058077;28;20076;-47
2023/07/05 10:03:14;;;;;;;12.35;3.85;;;;;;;15.92;100.00;100560.25;5075157;28;20533;-46
2023/07/05 10:05:53;;;;;;;11.48;3.88;;;;;;;16.26;100.00;100598.94;5073098;28;20028;-47
2023/07/05 10:08:21;;;;;;;15.07;5.28;;;;;;;15.30;100.00;100512.56;5075652;28;20186;-54
2023/07/05 10:10:47;;;;;;;12.98;3.92;;;;;;;15.12;100.00;100578.94;5074572;28;20024;-50
2023/07/05 10:13:21;;;;;;;14.88;4.80;;;;;;;15.01;100.00;100637.00;5076104;28;20028;-49
2023/07/05 10:15:49;;;;;;;13.48;4.63;;;;;;;14.96;100.00;100636.41;5075788;28;20028;-48
2023/07/05 10:18:44;;;;;;;9.70;3.78;;;;;;;15.03;100.00;100647.53;5075893;28;20082;-45
2023/07/05 10:21:19;;;;;;;13.85;5.07;;;;;;;15.18;100.00;100644.91;5062514;28;20084;-56
2023/07/05 10:23:44;;;;;;;12.95;4.18;;;;;;;15.41;100.00;100646.28;5053200;28;20032;-53
2023/07/05 10:26:11;;;;;;;14.30;4.18;;;;;;;15.29;100.00;100638.16;5056101;28;20128;-56
2023/07/05 10:28:37;;;;;;;11.40;3.67;;;;;;;15.40;100.00;100671.13;5054152;28;20079;-50
2023/07/05 10:31:07;;;;;;;9.63;4.10;;;;;;;15.23;100.00;100622.59;5037677;28;20033;-57
2023/07/05 10:33:37;;;;;;;10.65;3.35;;;;;;;15.80;100.00;100677.72;5055408;28;20036;-52
2023/07/05 10:36:04;;;;;;;13.45;4.10;;;;;;;15.70;100.00;100689.81;5054479;28;20029;-50
2023/07/05 10:38:40;;;;;;;16.10;4.13;;;;;;;15.66;100.00;100696.22;5055429;28;20021;-48
2023/07/05 10:41:20;;;;;;;9.77;3.33;;;;;;;15.75;100.00;100711.66;5072222;28;20028;-45
2023/07/05 10:44:03;;;;;;;10.37;3.30;;;;;;;15.47;100.00;100653.94;5073127;28;20464;-50
2023/07/05 10:46:30;;;;;;;14.25;4.55;;;;;;;15.92;100.00;100653.16;5040678;28;20312;-48
2023/07/05 10:48:57;;;;;;;8.07;3.40;;;;;;;16.58;100.00;100666.97;5074452;28;20032;-51
2023/07/05 10:51:29;;;;;;;9.82;2.95;;;;;;;17.67;100.00;100726.72;5056919;28;20082;-53
2023/07/05 10:54:02;;;;;;;10.88;3.10;;;;;;;18.09;100.00;100741.75;5074944;28;20333;-51
2023/07/05 10:56:31;;;;;;;11.45;2.95;;;;;;;17.28;100.00;100713.19;5054089;28;20090;-52
2023/07/05 10:59:09;;;;;;;8.18;2.80;;;;;;;17.26;100.00;100757.66;5053916;28;20033;-49
2023/07/05 11:01:38;;;;;;;8.07;2.70;;;;;;;17.34;100.00;100774.88;5055045;28;20066;-51
2023/07/05 11:04:11;;;;;;;6.50;2.55;;;;;;;17.74;100.00;100729.84;5037462;28;20116;-47
2023/07/05 11:06:37;;;;;;;5.20;2.47;;;;;;;18.43;100.00;100770.56;5053615;28;20077;-58
2023/07/05 11:09:03;;;;;;;5.93;2.83;;;;;;;17.99;100.00;100733.50;5061347;28;20080;-53
2023/07/05 11:11:32;;;;;;;7.60;2.75;;;;;;;17.87;100.00;100726.28;5074914;28;20040;-57
2023/07/05 11:14:03;;;;;;;6.57;2.50;;;;;;;17.81;100.00;100726.69;5073606;28;20043;-50
2023/07/05 11:16:29;;;;;;;;;;;;;;;18.22;100.00;100806.59;5074147;28;20056;-50
2023/07/05 11:19:03;;;;;;;9.32;2.63;;;;;;;18.03;100.00;100807.88;5056835;28;19935;-49
2023/07/05 11:21:44;;;;;;;7.78;2.88;;;;;;;17.43;100.00;100760.13;5042071;28;20033;-57
2023/07/05 11:24:38;;;;;;;7.28;2.55;;;;;;;17.66;100.00;100826.16;5054473;28;20064;-51